createdAt,value
2022-08-05T00:01:30.768Z,4.60
2022-08-05T00:04:03.449Z,4.03
2022-08-05T00:06:33.377Z,5.72
2022-08-05T00:09:03.081Z,6.88
2022-08-05T00:11:30.612Z,8.98
2022-08-05T00:14:12.071Z,3.45
2022-08-05T00:16:53.372Z,3.60
2022-08-05T00:19:22.657Z,6.78
2022-08-05T00:21:50.127Z,5.63
2022-08-05T00:24:19.157Z,6.07
2022-08-05T00:26:52.195Z,4.80
2022-08-05T00:29:22.692Z,4.95
2022-08-05T00:32:10.206Z,5.90
2022-08-05T00:35:03.564Z,10.98
2022-08-05T00:37:35.444Z,23.40
2022-08-05T00:40:27.929Z,7.45
2022-08-05T00:42:59.115Z,5.88
2022-08-05T00:45:37.821Z,11.77
2022-08-05T00:48:07.480Z,9.10
2022-08-05T00:50:34.215Z,8.50
2022-08-05T00:53:00.917Z,21.52
2022-08-05T00:55:34.022Z,6.70
2022-08-05T00:58:11.262Z,16.25
2022-08-05T01:00:38.601Z,18.70
2022-08-05T01:03:07.875Z,16.20
2022-08-05T01:05:34.913Z,4.82
2022-08-05T01:08:41.597Z,12.80
2022-08-05T01:10:54.475Z,12.60
2022-08-05T01:13:58.872Z,12.55
2022-08-05T01:16:37.222Z,10.45
2022-08-05T01:19:46.177Z,9.60
2022-08-05T01:22:27.829Z,8.63
2022-08-05T01:25:23.564Z,16.20
2022-08-05T01:28:36.326Z,9.43
2022-08-05T01:31:21.545Z,10.52
2022-08-05T01:34:03.228Z,12.68
2022-08-05T01:36:34.013Z,8.88
2022-08-05T01:39:01.502Z,8.10
2022-08-05T01:41:34.740Z,10.45
2022-08-05T01:44:06.797Z,10.90
2022-08-05T01:46:42.529Z,18.90
2022-08-05T01:49:23.971Z,8.52
2022-08-05T01:51:58.386Z,5.75
2022-08-05T01:54:30.063Z,15.63
2022-08-05T01:58:10.637Z,10.50
2022-08-05T01:59:48.257Z,9.45
2022-08-05T02:02:17.698Z,9.98
2022-08-05T02:04:46.265Z,13.02
2022-08-05T02:07:21.581Z,14.98
2022-08-05T02:09:48.798Z,9.80
2022-08-05T02:12:19.794Z,12.13
2022-08-05T02:14:52.500Z,8.00
2022-08-05T02:18:32.146Z,12.60
2022-08-05T02:20:27.802Z,13.02
2022-08-05T02:22:59.927Z,8.82
2022-08-05T02:25:33.139Z,9.55
2022-08-05T02:30:33.316Z,14.68
2022-08-05T02:35:37.794Z,6.38
2022-08-05T02:38:12.399Z,10.38
2022-08-05T02:40:46.481Z,7.03
2022-08-05T02:43:16.617Z,10.25
2022-08-05T02:45:52.806Z,7.03
2022-08-05T02:48:29.143Z,8.43
2022-08-05T02:50:59.789Z,8.48
2022-08-05T02:53:27.778Z,8.65
2022-08-05T02:56:00.392Z,11.30
2022-08-05T02:58:30.588Z,8.23
2022-08-05T03:01:00.335Z,9.98
2022-08-05T03:03:34.174Z,7.22
2022-08-05T03:06:55.155Z,8.23
2022-08-05T03:09:04.480Z,11.05
2022-08-05T03:11:54.487Z,6.85
2022-08-05T03:14:18.044Z,9.80
2022-08-05T03:16:45.638Z,11.50
2022-08-05T03:19:16.911Z,7.78
2022-08-05T03:21:49.597Z,8.43
2022-08-05T03:24:29.529Z,6.93
2022-08-05T03:26:56.334Z,9.57
2022-08-05T03:29:23.933Z,8.45
2022-08-05T03:31:55.752Z,7.47
2022-08-05T03:34:24.406Z,6.68
2022-08-05T03:36:51.054Z,8.82
2022-08-05T03:39:20.351Z,10.23
2022-08-05T03:41:53.314Z,11.05
2022-08-05T03:44:23.024Z,13.75
2022-08-05T03:46:49.605Z,8.82
2022-08-05T03:49:16.066Z,10.07
2022-08-05T03:52:48.602Z,7.25
2022-08-05T03:56:06.147Z,10.10
2022-08-05T03:57:51.965Z,10.75
2022-08-05T04:00:25.897Z,9.82
2022-08-05T04:02:58.389Z,10.32
2022-08-05T04:05:36.084Z,9.25
2022-08-05T04:08:29.706Z,9.65
2022-08-05T04:10:53.359Z,15.60
2022-08-05T04:13:21.572Z,15.85
2022-08-05T04:15:52.767Z,17.02
2022-08-05T04:18:30.070Z,12.05
2022-08-05T04:20:57.675Z,11.20
2022-08-05T04:23:57.329Z,7.20
2022-08-05T04:26:17.421Z,8.50
2022-08-05T04:28:51.122Z,11.32
2022-08-05T04:31:18.635Z,10.25
2022-08-05T04:34:18.639Z,14.25
2022-08-05T04:36:45.164Z,7.90
2022-08-05T04:39:13.265Z,11.07
2022-08-05T04:41:39.790Z,7.90
2022-08-05T04:44:09.329Z,15.88
2022-08-05T04:46:37.161Z,13.00
2022-08-05T04:49:05.336Z,5.80
2022-08-05T04:51:38.892Z,10.50
2022-08-05T04:54:05.378Z,10.43
2022-08-05T04:56:36.857Z,6.45
2022-08-05T04:59:21.789Z,6.50
2022-08-05T05:02:35.162Z,6.93
2022-08-05T05:04:38.490Z,6.40
2022-08-05T05:07:11.583Z,9.55
2022-08-05T05:09:42.287Z,4.80
2022-08-05T05:12:10.840Z,10.98
2022-08-05T05:14:38.181Z,3.47
2022-08-05T05:17:17.738Z,5.15
2022-08-05T05:19:50.238Z,3.42
2022-08-05T05:22:23.526Z,5.97
2022-08-05T05:24:58.389Z,5.60
2022-08-05T05:27:41.735Z,3.65
2022-08-05T05:30:29.136Z,7.07
2022-08-05T05:33:00.770Z,3.70
2022-08-05T05:35:28.978Z,3.42
2022-08-05T05:38:02.136Z,7.70
2022-08-05T05:40:30.156Z,5.80
2022-08-05T05:42:59.452Z,5.75
2022-08-05T05:45:26.373Z,6.13
2022-08-05T05:48:06.094Z,6.38
2022-08-05T05:50:40.987Z,8.18
2022-08-05T05:53:21.473Z,8.52
2022-08-05T05:55:52.450Z,4.65
2022-08-05T05:58:31.814Z,12.38
2022-08-05T06:01:02.075Z,4.90
2022-08-05T06:03:54.398Z,6.82
2022-08-05T06:06:27.775Z,8.07
2022-08-05T06:08:57.138Z,4.90
2022-08-05T06:11:23.574Z,3.70
2022-08-05T06:13:53.632Z,5.03
2022-08-05T06:16:30.696Z,6.72
2022-08-05T06:19:05.387Z,5.30
2022-08-05T06:21:36.855Z,4.97
2022-08-05T06:24:12.146Z,6.20
2022-08-05T06:26:51.322Z,6.40
2022-08-05T06:29:25.286Z,4.43
2022-08-05T06:32:21.230Z,3.67
2022-08-05T06:34:53.482Z,5.60
2022-08-05T06:37:56.203Z,4.57
2022-08-05T06:40:09.655Z,3.80
2022-08-05T06:42:37.224Z,4.82
2022-08-05T06:45:08.890Z,4.20
2022-08-05T06:48:47.115Z,4.65
2022-08-05T06:50:22.373Z,4.43
2022-08-05T06:52:58.684Z,6.63
2022-08-05T06:55:30.133Z,7.28
2022-08-05T06:58:29.186Z,4.75
2022-08-05T07:00:49.214Z,4.15
2022-08-05T07:03:16.730Z,3.10
2022-08-05T07:05:44.023Z,7.88
2022-08-05T07:08:12.789Z,3.67
2022-08-05T07:10:53.048Z,4.60
2022-08-05T07:13:59.308Z,3.25
2022-08-05T07:18:01.163Z,2.85
2022-08-05T07:20:29.866Z,5.75
2022-08-05T07:22:22.064Z,3.40
2022-08-05T07:24:55.947Z,6.18
2022-08-05T07:27:22.861Z,5.15
2022-08-05T07:30:27.918Z,4.65
2022-08-05T07:32:40.689Z,3.38
2022-08-05T07:36:04.848Z,2.80
2022-08-05T07:37:55.625Z,2.92
2022-08-05T07:40:31.721Z,3.97
2022-08-05T07:42:59.246Z,2.80
2022-08-05T07:45:56.460Z,2.72
2022-08-05T07:48:21.161Z,5.22
2022-08-05T07:51:05.221Z,4.10
2022-08-05T07:53:51.601Z,4.63
2022-08-05T07:57:01.154Z,4.20
2022-08-05T07:59:05.031Z,3.85
2022-08-05T08:01:35.042Z,3.72
2022-08-05T08:04:07.942Z,4.35
2022-08-05T08:06:34.399Z,3.17
2022-08-05T08:09:00.825Z,5.10
2022-08-05T08:11:48.262Z,5.40
2022-08-05T08:14:18.253Z,3.40
2022-08-05T08:16:51.470Z,2.75
2022-08-05T08:20:10.159Z,3.30
2022-08-05T08:22:09.048Z,2.95
2022-08-05T08:24:51.868Z,2.63
2022-08-05T08:27:18.567Z,23.45
2022-08-05T08:30:06.170Z,3.70
2022-08-05T08:32:36.158Z,4.60
2022-08-05T08:35:13.701Z,6.25
2022-08-05T08:37:40.434Z,2.85
2022-08-05T08:40:11.987Z,3.17
2022-08-05T08:42:46.805Z,2.58
2022-08-05T08:45:27.230Z,3.42
2022-08-05T08:48:12.922Z,4.18
2022-08-05T08:51:07.746Z,5.07
2022-08-05T08:53:37.377Z,3.60
2022-08-05T08:56:06.293Z,3.28
2022-08-05T08:58:43.801Z,2.72
2022-08-05T09:01:15.838Z,2.47
2022-08-05T09:03:46.717Z,3.13
2022-08-05T09:06:18.484Z,3.33
2022-08-05T09:08:46.568Z,2.25
2022-08-05T09:11:14.825Z,4.32
2022-08-05T09:14:09.804Z,4.65
2022-08-05T09:16:29.745Z,3.35
2022-08-05T09:18:56.407Z,3.42
2022-08-05T09:22:22.972Z,4.38
2022-08-05T09:24:15.396Z,2.33
2022-08-05T09:26:46.161Z,4.32
2022-08-05T09:29:17.606Z,4.28
2022-08-05T09:32:45.520Z,3.67
2022-08-05T09:34:55.164Z,4.65
2022-08-05T09:38:17.119Z,2.60
2022-08-05T09:40:29.665Z,3.42
2022-08-05T09:42:56.146Z,4.60
2022-08-05T09:46:07.106Z,4.82
2022-08-05T09:48:26.839Z,2.45
2022-08-05T09:51:01.025Z,3.03
2022-08-05T09:53:53.853Z,5.65
2022-08-05T09:56:25.191Z,3.17
2022-08-05T09:59:04.109Z,3.22
2022-08-05T10:01:36.386Z,2.85
2022-08-05T10:04:13.595Z,3.00
2022-08-05T10:06:58.707Z,2.40
2022-08-05T10:09:28.291Z,3.70
2022-08-05T10:12:31.358Z,3.75
2022-08-05T10:15:13.763Z,3.97
2022-08-05T10:17:47.422Z,4.93
2022-08-05T10:20:23.835Z,3.47
2022-08-05T10:22:52.539Z,3.40
2022-08-05T10:25:19.685Z,4.35
2022-08-05T10:28:12.727Z,3.50
2022-08-05T10:32:47.233Z,2.25
2022-08-05T10:33:25.628Z,4.43
2022-08-05T10:35:59.994Z,3.90
2022-08-05T10:38:29.279Z,2.92
2022-08-05T10:41:12.444Z,2.58
2022-08-05T10:43:59.323Z,3.30
2022-08-05T10:46:43.459Z,3.20
2022-08-05T10:49:16.518Z,4.25
2022-08-05T10:51:57.336Z,2.30
2022-08-05T10:54:46.886Z,4.07
2022-08-05T10:57:32.348Z,3.55
2022-08-05T11:00:24.414Z,3.00
2022-08-05T11:03:24.677Z,2.70
2022-08-05T11:06:15.179Z,3.25
2022-08-05T11:09:17.334Z,3.83
2022-08-05T11:11:53.552Z,3.03
2022-08-05T11:14:57.458Z,3.08
2022-08-05T11:17:59.134Z,2.70
2022-08-05T11:20:44.182Z,5.70
2022-08-05T11:23:49.893Z,2.60
2022-08-05T11:26:16.225Z,2.72
2022-08-05T11:28:55.781Z,3.70
2022-08-05T11:31:57.714Z,2.28
2022-08-05T11:34:18.086Z,3.93
2022-08-05T11:36:52.916Z,3.55
2022-08-05T11:39:49.046Z,5.60
2022-08-05T11:42:18.490Z,5.65
2022-08-05T11:44:54.183Z,2.42
2022-08-05T11:47:48.283Z,2.97
2022-08-05T11:50:09.872Z,3.20
2022-08-05T11:52:41.215Z,3.83
2022-08-05T11:55:11.380Z,4.53
2022-08-05T11:58:09.298Z,6.60
2022-08-05T12:00:32.167Z,2.97
2022-08-05T12:03:28.781Z,2.70
2022-08-05T12:06:03.264Z,2.78
2022-08-05T12:08:32.986Z,4.68
2022-08-05T12:11:05.806Z,4.63
2022-08-05T12:13:49.214Z,4.32
2022-08-05T12:18:52.427Z,4.15
2022-08-05T12:21:26.935Z,4.25
2022-08-05T12:24:17.291Z,4.18
2022-08-05T12:26:50.144Z,3.25
2022-08-05T12:29:23.098Z,3.67
2022-08-05T12:31:54.323Z,4.20
2022-08-05T12:34:31.362Z,5.30
2022-08-05T12:37:00.992Z,3.35
2022-08-05T12:39:37.247Z,2.65
2022-08-05T12:42:14.772Z,5.90
2022-08-05T12:44:43.005Z,2.78
2022-08-05T12:47:12.572Z,3.47
2022-08-05T12:50:03.753Z,3.78
2022-08-05T12:52:39.562Z,3.95
2022-08-05T12:55:26.480Z,2.75
2022-08-05T12:58:48.358Z,3.38
2022-08-05T13:02:02.843Z,3.35
2022-08-05T13:03:32.224Z,2.63
2022-08-05T13:06:00.861Z,5.18
2022-08-05T13:08:30.199Z,4.50
2022-08-05T13:11:04.367Z,4.50
2022-08-05T13:14:05.170Z,3.60
2022-08-05T13:16:19.513Z,4.75
2022-08-05T13:18:55.162Z,3.92
2022-08-05T13:21:28.395Z,5.80
2022-08-05T13:24:04.803Z,4.32
2022-08-05T13:26:31.327Z,5.05
2022-08-05T13:28:59.177Z,5.88
2022-08-05T13:32:04.549Z,3.75
2022-08-05T13:34:23.461Z,6.32
2022-08-05T13:36:53.271Z,7.60
2022-08-05T13:40:13.838Z,3.70
2022-08-05T13:42:06.719Z,5.50
2022-08-05T13:44:34.632Z,7.38
2022-08-05T13:47:05.044Z,4.85
2022-08-05T13:49:36.015Z,4.10
2022-08-05T13:52:29.827Z,3.55
2022-08-05T13:54:59.263Z,4.18
2022-08-05T13:57:27.691Z,5.82
2022-08-05T14:00:14.489Z,4.65
2022-08-05T14:02:42.532Z,5.93
2022-08-05T14:05:11.997Z,3.95
2022-08-05T14:08:01.130Z,5.28
2022-08-05T14:10:31.102Z,5.57
2022-08-05T14:12:58.314Z,3.85
2022-08-05T14:16:05.783Z,3.67
2022-08-05T14:18:15.304Z,5.07
2022-08-05T14:20:48.763Z,4.90
2022-08-05T14:23:23.410Z,5.07
2022-08-05T14:25:54.312Z,4.18
2022-08-05T14:28:26.962Z,4.00
2022-08-05T14:30:54.687Z,3.88
2022-08-05T14:33:22.726Z,6.57
2022-08-05T14:35:51.892Z,3.75
2022-08-05T14:38:32.937Z,3.58
2022-08-05T14:44:01.510Z,6.03
2022-08-05T14:46:29.031Z,6.35
2022-08-05T14:48:58.994Z,4.50
2022-08-05T14:51:30.693Z,4.68
2022-08-05T14:54:26.087Z,7.30
2022-08-05T14:56:46.792Z,7.03
2022-08-05T14:59:14.440Z,4.65
2022-08-05T15:01:47.963Z,4.28
2022-08-05T15:04:17.299Z,5.35
2022-08-05T15:06:49.426Z,4.55
2022-08-05T15:09:16.674Z,6.90
2022-08-05T15:12:04.031Z,5.32
2022-08-05T15:14:35.551Z,5.50
2022-08-05T15:17:44.280Z,5.20
2022-08-05T15:19:55.980Z,4.25
2022-08-05T15:22:27.039Z,4.65
2022-08-05T15:24:55.738Z,3.97
2022-08-05T15:27:22.179Z,6.38
2022-08-05T15:29:52.756Z,7.05
2022-08-05T15:32:20.790Z,3.90
2022-08-05T15:34:53.718Z,3.63
2022-08-05T15:38:08.559Z,4.80
2022-08-05T15:41:00.016Z,3.58
2022-08-05T15:42:59.075Z,5.13
2022-08-05T15:45:38.241Z,3.53
2022-08-05T15:48:05.619Z,5.90
2022-08-05T15:50:33.520Z,6.35
2022-08-05T15:53:04.141Z,5.35
2022-08-05T15:56:02.511Z,4.43
2022-08-05T15:58:18.811Z,3.30
2022-08-05T16:01:03.466Z,4.18
2022-08-05T16:03:33.837Z,13.07
2022-08-05T16:06:00.391Z,3.45
2022-08-05T16:08:30.692Z,6.57
2022-08-05T16:10:57.917Z,9.52
2022-08-05T16:13:34.153Z,6.57
2022-08-05T16:16:01.168Z,4.03
2022-08-05T16:18:29.703Z,5.95
2022-08-05T16:20:56.125Z,5.22
2022-08-05T16:23:22.565Z,4.30
2022-08-05T16:25:49.832Z,5.43
2022-08-05T16:28:22.363Z,6.80
2022-08-05T16:30:52.044Z,9.20
2022-08-05T16:33:19.449Z,13.98
2022-08-05T16:35:49.920Z,8.80
2022-08-05T16:38:25.717Z,10.13
2022-08-05T16:41:00.926Z,10.50
2022-08-05T16:43:33.570Z,15.52
2022-08-05T16:46:04.638Z,13.45
2022-08-05T16:48:35.294Z,10.50
2022-08-05T16:51:02.308Z,9.57
2022-08-05T16:54:05.210Z,11.40
2022-08-05T16:56:22.070Z,9.32
2022-08-05T16:58:50.408Z,7.85
2022-08-05T17:01:17.035Z,6.43
2022-08-05T17:03:45.455Z,9.45
2022-08-05T17:06:11.966Z,6.72
2022-08-05T17:08:52.999Z,5.60
2022-08-05T17:11:25.745Z,8.43
2022-08-05T17:13:54.791Z,8.10
2022-08-05T17:16:33.567Z,6.28
2022-08-05T17:19:02.259Z,6.72
2022-08-05T17:21:35.427Z,8.05
2022-08-05T17:24:14.383Z,7.78
2022-08-05T17:26:50.788Z,6.22
2022-08-05T17:29:17.287Z,9.32
2022-08-05T17:31:59.031Z,6.45
2022-08-05T17:34:29.829Z,7.82
2022-08-05T17:36:59.868Z,4.93
2022-08-05T17:39:34.184Z,5.97
2022-08-05T17:42:19.729Z,10.05
2022-08-05T17:44:50.208Z,5.90
2022-08-05T17:47:22.594Z,8.30
2022-08-05T17:50:03.918Z,10.93
2022-08-05T17:52:34.689Z,6.75
2022-08-05T17:55:20.806Z,6.10
2022-08-05T17:57:48.755Z,6.25
2022-08-05T18:00:17.309Z,6.05
2022-08-05T18:02:46.729Z,6.90
2022-08-05T18:05:13.690Z,7.72
2022-08-05T18:07:44.448Z,10.15
2022-08-05T18:10:20.503Z,7.93
2022-08-05T18:12:51.108Z,8.00
2022-08-05T18:15:17.981Z,6.63
2022-08-05T18:18:00.596Z,7.72
2022-08-05T18:20:32.425Z,7.28
2022-08-05T18:23:09.271Z,7.55
2022-08-05T18:25:38.921Z,9.65
2022-08-05T18:28:06.112Z,7.50
2022-08-05T18:30:33.322Z,7.85
2022-08-05T18:33:01.256Z,9.00
2022-08-05T18:35:59.927Z,7.72
2022-08-05T18:38:19.313Z,8.43
2022-08-05T18:41:54.351Z,9.38
2022-08-05T18:43:43.079Z,8.98
2022-08-05T18:46:14.986Z,8.80
2022-08-05T18:48:41.999Z,12.85
2022-08-05T18:52:05.359Z,9.15
2022-08-05T18:54:14.494Z,7.93
2022-08-05T18:56:41.625Z,8.18
2022-08-05T18:59:42.010Z,8.25
2022-08-05T19:02:04.635Z,7.30
2022-08-05T19:05:01.032Z,9.18
2022-08-05T19:07:24.851Z,6.90
2022-08-05T19:09:56.800Z,11.35
2022-08-05T19:12:23.952Z,7.88
2022-08-05T19:15:00.644Z,7.60
2022-08-05T19:17:59.400Z,7.43
2022-08-05T19:20:15.282Z,6.03
2022-08-05T19:22:42.893Z,5.38
2022-08-05T19:25:10.585Z,5.57
2022-08-05T19:27:48.190Z,8.05
2022-08-05T19:30:16.830Z,6.43
2022-08-05T19:32:47.160Z,6.93
2022-08-05T19:35:13.705Z,4.38
2022-08-05T19:38:04.420Z,7.13
2022-08-05T19:40:28.503Z,4.45
2022-08-05T19:43:04.719Z,5.43
2022-08-05T19:45:36.292Z,4.60
2022-08-05T19:48:03.399Z,4.13
2022-08-05T19:50:31.918Z,5.00
2022-08-05T19:52:58.532Z,4.35
2022-08-05T19:56:12.511Z,5.55
2022-08-05T19:58:27.445Z,4.45
2022-08-05T20:00:55.480Z,3.00
2022-08-05T20:03:22.610Z,4.05
2022-08-05T20:05:51.288Z,6.07
2022-08-05T20:08:18.207Z,3.08
2022-08-05T20:10:44.662Z,5.07
2022-08-05T20:13:15.984Z,4.15
2022-08-05T20:15:48.407Z,2.85
2022-08-05T20:18:33.733Z,4.65
2022-08-05T20:21:04.763Z,2.30
2022-08-05T20:23:40.239Z,2.75
2022-08-05T20:26:18.100Z,3.08
2022-08-05T20:29:01.664Z,2.10
2022-08-05T20:31:42.995Z,4.35
2022-08-05T20:34:16.128Z,3.25
2022-08-05T20:36:43.824Z,5.07
2022-08-05T20:39:13.007Z,2.20
2022-08-05T20:41:43.988Z,2.63
2022-08-05T20:44:17.171Z,2.92
2022-08-05T20:46:46.421Z,3.15
2022-08-05T20:49:13.757Z,1.48
2022-08-05T20:51:40.291Z,1.80
2022-08-05T20:54:06.900Z,2.10
2022-08-05T20:59:19.394Z,3.70
2022-08-05T21:01:56.337Z,3.53
2022-08-05T21:04:24.314Z,2.15
2022-08-05T21:06:53.908Z,2.35
2022-08-05T21:09:20.343Z,1.30
2022-08-05T21:12:09.643Z,2.78
2022-08-05T21:14:35.163Z,2.70
2022-08-05T21:17:03.015Z,3.08
2022-08-05T21:19:46.955Z,3.03
2022-08-05T21:22:18.683Z,3.00
2022-08-05T21:27:20.605Z,2.78
2022-08-05T21:29:51.294Z,4.65
2022-08-05T21:32:20.140Z,3.95
2022-08-05T21:34:56.032Z,3.75
2022-08-05T21:37:33.349Z,3.22
2022-08-05T21:40:05.717Z,2.55
2022-08-05T21:42:44.019Z,3.83
2022-08-05T21:45:11.938Z,2.10
2022-08-05T21:47:55.775Z,2.60
2022-08-05T21:50:24.133Z,2.08
2022-08-05T21:52:50.625Z,2.85
2022-08-05T21:55:21.609Z,2.50
2022-08-05T21:58:05.441Z,1.67
2022-08-05T22:00:31.990Z,3.70
2022-08-05T22:02:58.505Z,3.72
2022-08-05T22:05:27.481Z,2.72
2022-08-05T22:07:59.161Z,3.75
2022-08-05T22:10:29.004Z,3.22
2022-08-05T22:12:57.504Z,3.63
2022-08-05T22:16:01.499Z,1.92
2022-08-05T22:18:13.094Z,2.45
2022-08-05T22:20:41.320Z,5.32
2022-08-05T22:24:02.701Z,2.08
2022-08-05T22:26:32.801Z,2.42
2022-08-05T22:29:00.206Z,3.35
2022-08-05T22:31:30.114Z,5.50
2022-08-05T22:34:01.110Z,1.60
2022-08-05T22:36:28.276Z,3.28
2022-08-05T22:38:56.768Z,4.93
2022-08-05T22:42:04.133Z,3.42
2022-08-05T22:44:12.003Z,2.35
2022-08-05T22:46:39.891Z,1.50
2022-08-05T22:49:12.345Z,1.67
2022-08-05T22:52:04.579Z,3.17
2022-08-05T22:54:34.890Z,1.55
2022-08-05T22:57:01.377Z,3.30
2022-08-05T22:59:44.032Z,9.75
2022-08-05T23:02:16.666Z,3.40
2022-08-05T23:04:43.798Z,1.88
2022-08-05T23:07:18.517Z,2.42
2022-08-05T23:09:57.854Z,2.03
2022-08-05T23:12:32.576Z,2.60
2022-08-05T23:15:03.426Z,6.18
2022-08-05T23:17:32.690Z,2.42
2022-08-05T23:20:02.997Z,2.92
2022-08-05T23:22:29.746Z,3.08
2022-08-05T23:24:57.496Z,4.53
2022-08-05T23:27:24.199Z,1.70
2022-08-05T23:29:55.888Z,3.42
2022-08-05T23:32:22.604Z,5.68
2022-08-05T23:34:49.788Z,3.42
2022-08-05T23:37:18.003Z,7.13
2022-08-05T23:39:54.156Z,2.35
2022-08-05T23:42:23.550Z,1.92
2022-08-05T23:44:55.974Z,4.32
2022-08-05T23:47:22.535Z,3.38
2022-08-05T23:49:51.998Z,2.88
2022-08-05T23:52:29.218Z,3.95
2022-08-05T23:55:07.146Z,2.33
2022-08-05T23:57:35.835Z,2.40
